Terminal Aerodrome Forecast
Issued by NWS Wilmington, OH

Current Version | Previous Version | Graphics & Text | Print | Product List | Glossary On
Versions: 1 2 3 4 5 6 7 8 9 10 11 12 13 14 15 16 17 18 19 20 21 22
000
FTUS41 KILN 031400 AAA
TAFCVG
TAF AMD
KCVG 031456Z 0315/0418 03005KT P6SM VCSH SCT012 BKN035 OVC045
      TEMPO 0315/0316 5SM BR OVC025
     FM031600 04008KT P6SM VCSH SCT025 BKN040
     FM040100 01007KT P6SM SCT040
     FM041300 34007KT P6SM SCT040=

USA.gov is the U.S. government's official web portal to all federal, state and local government web resources and services.